Weather at Southampton Airport

Public forecast

Using degrees Celsius for public forecast. Weather courtesy of forecast.io.

Current aviation weather report (METAR) for Southampton Airport

2024/05/29 18:50 (retrieved 23 minutes ago)

EGHI 291850Z 31008KT 270V360 9999 FEW035 16/09 Q1009

Closest aviation forecast (TAF) to Southampton Airport

Closest forecast is RAF Odiham, 23.1 nm (42.8 km) NE.

2024/05/29 18:06 (retrieved 1 hour ago)

TAF TAF EGVO 291641Z 2918/3006 30012KT 9999 SCT035 PROB30 TEMPO 3005/3006 7000 SHRA BKN014TCU